createdAt,value
2023-02-12T00:01:33.108Z,12.60
2023-02-12T00:05:00.153Z,18.10
2023-02-12T00:08:27.187Z,14.00
2023-02-12T00:11:54.054Z,18.00
2023-02-12T00:15:21.635Z,16.00
2023-02-12T00:18:51.367Z,11.90
2023-02-12T00:22:19.407Z,12.70
2023-02-12T00:25:47.668Z,11.90
2023-02-12T00:29:14.555Z,8.90
2023-02-12T00:32:41.210Z,12.20
2023-02-12T00:36:10.711Z,17.10
2023-02-12T00:39:41.844Z,18.30
2023-02-12T00:43:09.026Z,20.00
2023-02-12T00:46:35.963Z,18.60
2023-02-12T00:50:03.017Z,14.50
2023-02-12T00:53:30.603Z,13.00
2023-02-12T00:56:58.226Z,11.00
2023-02-12T01:00:30.590Z,14.40
2023-02-12T01:03:58.513Z,10.80
2023-02-12T01:07:27.416Z,8.30
2023-02-12T01:11:00.809Z,10.30
2023-02-12T01:14:28.631Z,12.70
2023-02-12T01:17:56.650Z,10.00
2023-02-12T01:21:26.866Z,11.00
2023-02-12T01:24:56.806Z,15.10
2023-02-12T01:28:23.453Z,18.50
2023-02-12T01:31:50.467Z,21.10
2023-02-12T01:35:17.601Z,13.20
2023-02-12T01:38:45.750Z,13.20
2023-02-12T01:42:19.158Z,14.70
2023-02-12T01:45:55.003Z,19.00
2023-02-12T01:49:25.699Z,15.00
2023-02-12T01:52:57.653Z,16.60
2023-02-12T01:56:26.548Z,18.30
2023-02-12T01:59:57.994Z,18.10
2023-02-12T02:03:26.734Z,18.20
2023-02-12T02:06:58.546Z,24.10
2023-02-12T02:10:28.200Z,18.80
2023-02-12T02:14:14.179Z,16.70
2023-02-12T02:17:54.097Z,15.20
2023-02-12T02:22:02.324Z,14.50
2023-02-12T02:25:52.017Z,14.90
2023-02-12T02:29:47.840Z,15.60
2023-02-12T02:33:29.578Z,19.10
2023-02-12T02:37:04.838Z,14.80
2023-02-12T02:40:41.697Z,15.40
2023-02-12T02:44:17.630Z,13.70
2023-02-12T02:47:49.690Z,19.60
2023-02-12T02:51:23.856Z,15.10
2023-02-12T02:54:55.900Z,17.70
2023-02-12T02:58:30.647Z,12.00
2023-02-12T03:02:08.593Z,14.40
2023-02-12T03:05:39.738Z,16.70
2023-02-12T03:09:14.000Z,17.70
2023-02-12T03:12:50.972Z,19.80
2023-02-12T03:16:24.790Z,19.50
2023-02-12T03:19:57.602Z,20.60
2023-02-12T03:23:29.364Z,26.30
2023-02-12T03:27:04.532Z,20.10
2023-02-12T03:30:41.971Z,18.60
2023-02-12T03:34:15.054Z,20.40
2023-02-12T03:37:47.916Z,23.40
2023-02-12T03:41:22.529Z,17.30
2023-02-12T03:44:59.071Z,20.00
2023-02-12T03:48:36.120Z,19.50
2023-02-12T03:52:06.054Z,16.70
2023-02-12T03:55:38.210Z,17.90
2023-02-12T03:59:06.898Z,21.30
2023-02-12T04:02:34.214Z,21.40
2023-02-12T04:06:03.870Z,20.70
2023-02-12T04:09:32.769Z,19.90
2023-02-12T04:13:13.156Z,17.00
2023-02-12T04:16:48.175Z,20.90
2023-02-12T04:20:24.880Z,20.70
2023-02-12T04:24:03.592Z,21.20
2023-02-12T04:27:44.800Z,21.80
2023-02-12T04:31:22.036Z,23.40
2023-02-12T04:35:01.707Z,27.60
2023-02-12T04:38:35.199Z,26.80
2023-02-12T04:45:35.079Z,32.80
2023-02-12T04:49:06.867Z,33.40
2023-02-12T04:52:36.572Z,31.40
2023-02-12T04:56:05.320Z,28.30
2023-02-12T04:59:40.239Z,27.90
2023-02-12T05:03:10.537Z,25.80
2023-02-12T05:06:40.411Z,21.90
2023-02-12T05:10:11.031Z,25.40
2023-02-12T05:13:40.360Z,31.80
2023-02-12T05:17:08.886Z,29.80
2023-02-12T05:20:37.069Z,31.30
2023-02-12T05:24:04.779Z,31.30
2023-02-12T05:27:32.951Z,28.30
2023-02-12T05:31:03.621Z,29.10
2023-02-12T05:34:33.014Z,33.80
2023-02-12T05:38:00.426Z,32.40
2023-02-12T05:41:28.849Z,41.70
2023-02-12T05:44:58.867Z,29.40
2023-02-12T05:48:27.132Z,32.00
2023-02-12T05:51:55.583Z,30.00
2023-02-12T05:55:23.120Z,33.20
2023-02-12T05:58:56.524Z,26.30
2023-02-12T06:02:24.178Z,28.40
2023-02-12T06:06:00.159Z,26.40
2023-02-12T06:09:30.650Z,30.70
2023-02-12T06:12:59.379Z,26.20
2023-02-12T06:16:28.833Z,29.00
2023-02-12T06:19:56.785Z,27.90
2023-02-12T06:23:24.735Z,26.40
2023-02-12T06:26:52.882Z,27.30
2023-02-12T06:30:20.953Z,27.20
2023-02-12T06:33:49.087Z,29.70
2023-02-12T06:37:16.087Z,28.10
2023-02-12T06:40:43.449Z,29.20
2023-02-12T06:44:12.792Z,26.40
2023-02-12T06:47:39.379Z,23.60
2023-02-12T06:51:12.335Z,24.80
2023-02-12T06:54:39.362Z,27.20
2023-02-12T06:58:07.391Z,26.00
2023-02-12T07:01:34.221Z,24.10
2023-02-12T07:05:01.794Z,29.50
2023-02-12T07:08:28.569Z,26.90
2023-02-12T07:11:56.791Z,23.40
2023-02-12T07:15:28.596Z,26.80
2023-02-12T07:18:55.832Z,25.70
2023-02-12T07:22:23.138Z,29.00
2023-02-12T07:26:00.295Z,26.40
2023-02-12T07:29:27.745Z,25.20
2023-02-12T07:32:54.646Z,23.60
2023-02-12T07:36:25.615Z,24.10
2023-02-12T07:39:52.663Z,25.20
2023-02-12T07:43:19.413Z,35.30
2023-02-12T07:46:48.679Z,33.50
2023-02-12T07:50:18.409Z,34.90
2023-02-12T07:53:46.370Z,41.10
2023-02-12T07:57:13.857Z,36.50
2023-02-12T08:00:40.604Z,36.10
2023-02-12T08:04:11.459Z,32.20
2023-02-12T08:07:38.759Z,37.00
2023-02-12T08:11:07.000Z,32.70
2023-02-12T08:14:34.005Z,32.40
2023-02-12T08:18:01.861Z,38.80
2023-02-12T08:21:30.393Z,40.50
2023-02-12T08:24:58.860Z,36.40
2023-02-12T08:28:26.050Z,31.70
2023-02-12T08:31:57.279Z,34.50
2023-02-12T08:35:25.198Z,33.70
2023-02-12T08:38:52.382Z,35.60
2023-02-12T08:42:25.910Z,41.20
2023-02-12T08:45:52.490Z,35.30
2023-02-12T08:49:22.060Z,38.00
2023-02-12T08:52:49.266Z,34.00
2023-02-12T08:56:20.153Z,39.20
2023-02-12T08:59:47.384Z,43.90
2023-02-12T09:03:14.674Z,40.50
2023-02-12T09:06:41.701Z,38.40
2023-02-12T09:10:12.469Z,43.00
2023-02-12T09:13:40.273Z,37.40
2023-02-12T09:17:07.283Z,34.90
2023-02-12T09:20:38.701Z,33.20
2023-02-12T09:24:06.285Z,31.30
2023-02-12T09:27:33.761Z,25.80
2023-02-12T09:31:06.256Z,22.50
2023-02-12T09:34:35.583Z,23.30
2023-02-12T09:38:02.527Z,19.50
2023-02-12T09:42:11.720Z,16.60
2023-02-12T09:45:45.245Z,15.40
2023-02-12T09:49:19.020Z,18.50
2023-02-12T09:52:48.693Z,20.60
2023-02-12T09:56:22.438Z,22.20
2023-02-12T09:59:54.152Z,21.10
2023-02-12T10:03:21.400Z,23.90
2023-02-12T10:06:57.679Z,24.80
2023-02-12T10:10:44.026Z,31.10
2023-02-12T10:14:46.279Z,24.10
2023-02-12T10:18:37.512Z,24.60
2023-02-12T10:22:15.276Z,23.80
2023-02-12T10:25:54.057Z,22.20
2023-02-12T10:29:24.811Z,21.50
2023-02-12T10:32:56.280Z,24.60
2023-02-12T10:36:36.085Z,20.20
2023-02-12T10:40:06.539Z,20.00
2023-02-12T10:43:34.046Z,27.40
2023-02-12T10:47:02.056Z,27.40
2023-02-12T10:50:43.677Z,32.20
2023-02-12T10:54:35.952Z,31.40
2023-02-12T10:58:19.287Z,25.60
2023-02-12T11:01:51.266Z,25.70
2023-02-12T11:05:27.331Z,32.00
2023-02-12T11:08:54.915Z,29.90
2023-02-12T11:12:31.708Z,29.30
2023-02-12T11:16:02.305Z,32.20
2023-02-12T11:19:36.555Z,35.60
2023-02-12T11:23:08.559Z,32.40
2023-02-12T11:26:36.677Z,38.40
2023-02-12T11:30:19.764Z,29.20
2023-02-12T11:33:53.726Z,34.40
2023-02-12T11:37:21.862Z,34.30
2023-02-12T11:40:49.831Z,45.90
2023-02-12T11:44:25.347Z,36.50
2023-02-12T11:47:53.836Z,38.40
2023-02-12T11:51:31.578Z,41.70
2023-02-12T11:55:04.476Z,35.10
2023-02-12T11:58:37.169Z,34.00
2023-02-12T12:02:19.905Z,41.80
2023-02-12T12:05:52.426Z,40.40
2023-02-12T12:09:27.426Z,33.10
2023-02-12T12:12:58.924Z,39.40
2023-02-12T12:16:58.128Z,36.60
2023-02-12T12:20:31.299Z,40.20
2023-02-12T12:24:05.764Z,43.20
2023-02-12T12:27:59.476Z,43.30
2023-02-12T12:31:31.722Z,43.90
2023-02-12T12:34:58.070Z,37.60
2023-02-12T12:38:40.940Z,39.70
2023-02-12T12:42:45.538Z,41.30
2023-02-12T12:46:33.467Z,45.00
2023-02-12T12:50:23.128Z,38.00
2023-02-12T12:54:03.631Z,40.80
2023-02-12T12:57:45.173Z,42.00
2023-02-12T13:01:45.765Z,35.20
2023-02-12T13:05:48.636Z,39.10
2023-02-12T13:09:38.590Z,45.30
2023-02-12T13:13:17.928Z,33.90
2023-02-12T13:16:51.457Z,37.60
2023-02-12T13:20:28.464Z,39.40
2023-02-12T13:24:01.391Z,35.90
2023-02-12T13:27:34.538Z,45.30
2023-02-12T13:31:01.386Z,37.40
2023-02-12T13:34:32.547Z,41.30
2023-02-12T13:38:01.805Z,40.10
2023-02-12T13:41:30.226Z,43.30
2023-02-12T13:45:07.982Z,45.80
2023-02-12T13:48:55.014Z,48.30
2023-02-12T13:52:30.664Z,51.10
2023-02-12T13:56:21.012Z,61.50
2023-02-12T13:59:50.642Z,70.30
2023-02-12T14:03:17.953Z,68.30
2023-02-12T14:06:55.992Z,63.30
2023-02-12T14:10:31.293Z,54.90
2023-02-12T14:14:00.146Z,51.40
2023-02-12T14:18:07.634Z,54.10
2023-02-12T14:21:42.515Z,49.80
2023-02-12T14:25:34.059Z,52.60
2023-02-12T14:29:04.813Z,54.30
2023-02-12T14:33:02.134Z,46.80
2023-02-12T14:36:44.199Z,50.00
2023-02-12T14:40:47.089Z,47.00
2023-02-12T14:44:56.514Z,40.60
2023-02-12T14:48:48.984Z,41.60
2023-02-12T14:52:24.976Z,38.80
2023-02-12T14:55:52.703Z,35.60
2023-02-12T14:59:22.660Z,43.30
2023-02-12T15:02:55.625Z,40.70
2023-02-12T15:06:28.628Z,36.80
2023-02-12T15:10:00.799Z,40.00
2023-02-12T15:13:34.321Z,35.80
2023-02-12T15:17:04.986Z,31.20
2023-02-12T15:20:36.843Z,36.90
2023-02-12T15:24:08.861Z,30.60
2023-02-12T15:27:35.687Z,36.50
2023-02-12T15:31:04.869Z,36.90
2023-02-12T15:34:38.247Z,33.50
2023-02-12T15:41:42.128Z,34.90
2023-02-12T15:45:25.412Z,41.40
2023-02-12T15:48:51.917Z,38.00
2023-02-12T15:52:24.997Z,38.50
2023-02-12T15:55:57.583Z,35.20
2023-02-12T15:59:30.341Z,34.90
2023-02-12T16:03:07.941Z,39.60
2023-02-12T16:06:39.269Z,39.10
2023-02-12T16:10:08.484Z,40.80
2023-02-12T16:13:38.699Z,44.10
2023-02-12T16:17:19.408Z,47.40
2023-02-12T16:20:47.059Z,44.00
2023-02-12T16:24:27.544Z,58.50
2023-02-12T16:28:00.182Z,54.70
2023-02-12T16:31:29.413Z,48.30
2023-02-12T16:35:05.769Z,46.50
2023-02-12T16:38:48.321Z,43.70
2023-02-12T16:42:20.384Z,34.10
2023-02-12T16:45:48.077Z,42.00
2023-02-12T16:49:18.761Z,66.10
2023-02-12T16:52:46.010Z,52.60
2023-02-12T16:56:21.408Z,44.80
2023-02-12T16:59:48.514Z,64.60
2023-02-12T17:03:20.838Z,43.40
2023-02-12T17:06:47.848Z,41.00
2023-02-12T17:10:17.819Z,33.60
2023-02-12T17:13:44.882Z,39.20
2023-02-12T17:17:12.460Z,32.10
2023-02-12T17:20:39.847Z,36.70
2023-02-12T17:24:09.934Z,42.10
2023-02-12T17:27:38.180Z,36.20
2023-02-12T17:31:06.609Z,39.70
2023-02-12T17:34:46.597Z,40.20
2023-02-12T17:38:15.379Z,35.10
2023-02-12T17:41:42.331Z,49.70
2023-02-12T17:45:10.786Z,53.50
2023-02-12T17:48:37.259Z,53.80
2023-02-12T17:52:07.199Z,54.60
2023-02-12T17:55:40.289Z,60.10
2023-02-12T17:59:07.792Z,70.00
2023-02-12T18:02:34.742Z,77.40
2023-02-12T18:06:01.585Z,69.30
2023-02-12T18:09:28.145Z,62.40
2023-02-12T18:12:55.401Z,55.80
2023-02-12T18:16:23.282Z,42.00
2023-02-12T18:19:52.028Z,53.50
2023-02-12T18:23:19.845Z,48.80
2023-02-12T18:26:47.112Z,42.60
2023-02-12T18:30:15.658Z,49.40
2023-02-12T18:33:44.166Z,48.40
2023-02-12T18:37:13.733Z,47.80
2023-02-12T18:40:44.526Z,47.70
2023-02-12T18:44:18.878Z,49.40
2023-02-12T18:47:47.694Z,54.60
2023-02-12T18:51:18.131Z,50.20
2023-02-12T18:54:48.064Z,52.80
2023-02-12T18:58:17.075Z,43.10
2023-02-12T19:01:43.941Z,45.90
2023-02-12T19:05:12.914Z,52.50
2023-02-12T19:08:42.162Z,45.50
2023-02-12T19:12:11.030Z,45.70
2023-02-12T19:15:42.909Z,42.10
2023-02-12T19:19:12.640Z,50.50
2023-02-12T19:22:40.836Z,48.10
2023-02-12T19:26:10.360Z,44.70
2023-02-12T19:29:36.989Z,45.80
2023-02-12T19:33:04.309Z,53.90
2023-02-12T19:36:35.480Z,50.40
2023-02-12T19:40:03.200Z,42.00
2023-02-12T19:43:30.184Z,35.90
2023-02-12T19:46:59.800Z,41.90
2023-02-12T19:50:26.416Z,34.00
2023-02-12T19:53:53.653Z,26.50
2023-02-12T19:57:24.011Z,30.10
2023-02-12T20:00:57.098Z,31.10
2023-02-12T20:04:25.677Z,28.00
2023-02-12T20:07:58.074Z,33.40
2023-02-12T20:11:29.092Z,31.00
2023-02-12T20:15:01.238Z,30.00
2023-02-12T20:18:28.560Z,28.70
2023-02-12T20:21:57.796Z,32.90
2023-02-12T20:25:25.993Z,41.40
2023-02-12T20:28:53.612Z,38.20
2023-02-12T20:32:22.382Z,45.50
2023-02-12T20:35:59.710Z,31.00
2023-02-12T20:39:28.568Z,36.20
2023-02-12T20:42:55.805Z,35.20
2023-02-12T20:46:30.606Z,30.80
2023-02-12T20:49:59.327Z,32.10
2023-02-12T20:53:35.380Z,43.50
2023-02-12T20:57:07.193Z,34.10
2023-02-12T21:00:35.508Z,26.90
2023-02-12T21:04:06.264Z,23.30
2023-02-12T21:07:36.372Z,27.90
2023-02-12T21:11:05.652Z,23.30
2023-02-12T21:14:34.432Z,24.70
2023-02-12T21:18:04.092Z,25.30
2023-02-12T21:21:33.857Z,27.50
2023-02-12T21:25:01.752Z,26.60
2023-02-12T21:28:29.745Z,25.80
2023-02-12T21:32:01.883Z,24.40
2023-02-12T21:35:29.361Z,35.00
2023-02-12T21:38:57.665Z,40.50
2023-02-12T21:42:30.253Z,42.80
2023-02-12T21:45:59.087Z,33.80
2023-02-12T21:49:28.548Z,30.50
2023-02-12T21:52:56.910Z,28.60
2023-02-12T21:56:29.596Z,27.40
2023-02-12T21:59:59.341Z,23.40
2023-02-12T22:03:31.201Z,25.30
2023-02-12T22:07:03.771Z,29.00
2023-02-12T22:10:34.994Z,24.00
2023-02-12T22:14:04.667Z,21.50
2023-02-12T22:17:35.557Z,23.90
2023-02-12T22:21:05.687Z,25.80
2023-02-12T22:24:33.353Z,19.20
2023-02-12T22:28:02.256Z,23.70
2023-02-12T22:31:32.900Z,19.70
2023-02-12T22:34:59.687Z,21.60
2023-02-12T22:38:26.947Z,22.90
2023-02-12T22:41:54.702Z,22.30
2023-02-12T22:45:21.825Z,24.40
2023-02-12T22:48:49.914Z,25.00
2023-02-12T22:52:16.821Z,27.20
2023-02-12T22:55:45.487Z,27.50
2023-02-12T22:59:14.061Z,22.50
2023-02-12T23:02:42.361Z,22.40
2023-02-12T23:06:12.162Z,18.90
2023-02-12T23:09:41.754Z,24.60
2023-02-12T23:13:21.285Z,23.90
2023-02-12T23:16:55.891Z,24.60
2023-02-12T23:20:23.998Z,21.20
2023-02-12T23:23:50.968Z,19.80
2023-02-12T23:27:23.892Z,20.00
2023-02-12T23:30:54.377Z,23.30
2023-02-12T23:34:21.588Z,19.50
2023-02-12T23:37:48.263Z,18.90
2023-02-12T23:41:15.096Z,26.50
2023-02-12T23:44:42.105Z,20.10
2023-02-12T23:48:09.035Z,18.40
2023-02-12T23:51:36.944Z,18.60
2023-02-12T23:55:16.621Z,19.10
2023-02-12T23:58:43.735Z,18.90
